sensor_id;sensor_type;location;lat;lon;timestamp;temperature;humidity
11320;DHT22;5715;48.234;14.320;2023-04-01T00:01:48;8.00;99.90
11320;DHT22;5715;48.234;14.320;2023-04-01T00:04:36;8.00;99.90
11320;DHT22;5715;48.234;14.320;2023-04-01T00:07:24;8.00;99.90
11320;DHT22;5715;48.234;14.320;2023-04-01T00:10:17;8.00;99.90
11320;DHT22;5715;48.234;14.320;2023-04-01T00:13:05;8.00;99.90
11320;DHT22;5715;48.234;14.320;2023-04-01T00:15:58;8.00;99.90
11320;DHT22;5715;48.234;14.320;2023-04-01T00:18:47;8.00;99.90
11320;DHT22;5715;48.234;14.320;2023-04-01T00:21:35;8.00;99.90
11320;DHT22;5715;48.234;14.320;2023-04-01T00:24:24;8.00;99.90
11320;DHT22;5715;48.234;14.320;2023-04-01T00:27:11;7.90;99.90
11320;DHT22;5715;48.234;14.320;2023-04-01T00:29:59;7.90;99.90
11320;DHT22;5715;48.234;14.320;2023-04-01T00:32:46;7.90;99.90
11320;DHT22;5715;48.234;14.320;2023-04-01T00:35:34;7.90;99.90
11320;DHT22;5715;48.234;14.320;2023-04-01T00:38:22;7.90;99.90
11320;DHT22;5715;48.234;14.320;2023-04-01T00:41:12;7.90;99.90
11320;DHT22;5715;48.234;14.320;2023-04-01T00:44:18;7.80;99.90
11320;DHT22;5715;48.234;14.320;2023-04-01T00:47:07;7.80;99.90
11320;DHT22;5715;48.234;14.320;2023-04-01T00:49:56;7.80;99.90
11320;DHT22;5715;48.234;14.320;2023-04-01T00:52:43;7.90;99.90
11320;DHT22;5715;48.234;14.320;2023-04-01T00:55:35;7.90;99.90
11320;DHT22;5715;48.234;14.320;2023-04-01T00:58:27;7.90;99.90
11320;DHT22;5715;48.234;14.320;2023-04-01T01:01:20;8.00;99.90
11320;DHT22;5715;48.234;14.320;2023-04-01T01:04:27;8.10;99.90
11320;DHT22;5715;48.234;14.320;2023-04-01T01:10:49;8.10;99.90
11320;DHT22;5715;48.234;14.320;2023-04-01T01:13:59;8.10;99.90
11320;DHT22;5715;48.234;14.320;2023-04-01T01:17:00;8.10;99.90
11320;DHT22;5715;48.234;14.320;2023-04-01T01:23:57;8.10;99.90
11320;DHT22;5715;48.234;14.320;2023-04-01T01:27:09;8.10;99.90
11320;DHT22;5715;48.234;14.320;2023-04-01T01:36:38;8.10;99.90
11320;DHT22;5715;48.234;14.320;2023-04-01T01:39:34;8.10;99.90
11320;DHT22;5715;48.234;14.320;2023-04-01T01:42:25;8.10;99.90
11320;DHT22;5715;48.234;14.320;2023-04-01T01:45:18;8.10;99.90
11320;DHT22;5715;48.234;14.320;2023-04-01T01:48:09;8.10;99.90
11320;DHT22;5715;48.234;14.320;2023-04-01T01:50:59;8.00;99.90
11320;DHT22;5715;48.234;14.320;2023-04-01T01:53:47;8.00;99.90
11320;DHT22;5715;48.234;14.320;2023-04-01T01:56:35;8.00;99.90
11320;DHT22;5715;48.234;14.320;2023-04-01T01:59:25;8.00;99.90
11320;DHT22;5715;48.234;14.320;2023-04-01T02:02:15;8.00;99.90
11320;DHT22;5715;48.234;14.320;2023-04-01T02:05:05;8.00;99.90
11320;DHT22;5715;48.234;14.320;2023-04-01T02:08:06;8.00;99.90
11320;DHT22;5715;48.234;14.320;2023-04-01T02:11:10;8.00;99.90
11320;DHT22;5715;48.234;14.320;2023-04-01T02:14:16;8.00;99.90
11320;DHT22;5715;48.234;14.320;2023-04-01T02:17:19;8.00;99.90
11320;DHT22;5715;48.234;14.320;2023-04-01T02:23:05;8.10;99.90
11320;DHT22;5715;48.234;14.320;2023-04-01T02:25:55;8.10;99.90
11320;DHT22;5715;48.234;14.320;2023-04-01T02:28:43;8.20;99.90
11320;DHT22;5715;48.234;14.320;2023-04-01T02:31:34;8.20;99.90
11320;DHT22;5715;48.234;14.320;2023-04-01T02:34:24;8.20;99.90
11320;DHT22;5715;48.234;14.320;2023-04-01T02:37:13;8.20;99.90
11320;DHT22;5715;48.234;14.320;2023-04-01T02:40:06;8.20;99.90
11320;DHT22;5715;48.234;14.320;2023-04-01T02:42:55;8.20;99.90
11320;DHT22;5715;48.234;14.320;2023-04-01T02:45:43;8.30;99.90
11320;DHT22;5715;48.234;14.320;2023-04-01T02:48:30;8.30;99.90
11320;DHT22;5715;48.234;14.320;2023-04-01T02:51:18;8.30;99.90
11320;DHT22;5715;48.234;14.320;2023-04-01T02:54:06;8.40;99.90
11320;DHT22;5715;48.234;14.320;2023-04-01T02:56:53;8.40;99.90
11320;DHT22;5715;48.234;14.320;2023-04-01T02:59:41;8.40;99.90
11320;DHT22;5715;48.234;14.320;2023-04-01T03:02:28;8.40;99.90
11320;DHT22;5715;48.234;14.320;2023-04-01T03:05:16;8.30;99.90
11320;DHT22;5715;48.234;14.320;2023-04-01T03:08:04;8.30;99.90
11320;DHT22;5715;48.234;14.320;2023-04-01T03:10:52;8.20;99.90
11320;DHT22;5715;48.234;14.320;2023-04-01T03:13:39;8.20;99.90
11320;DHT22;5715;48.234;14.320;2023-04-01T03:16:27;8.20;99.90
11320;DHT22;5715;48.234;14.320;2023-04-01T03:19:14;8.20;99.90
11320;DHT22;5715;48.234;14.320;2023-04-01T03:22:02;8.20;99.90
11320;DHT22;5715;48.234;14.320;2023-04-01T03:24:50;8.20;99.90
11320;DHT22;5715;48.234;14.320;2023-04-01T03:27:37;8.20;99.90
11320;DHT22;5715;48.234;14.320;2023-04-01T03:30:26;8.20;99.90
11320;DHT22;5715;48.234;14.320;2023-04-01T03:33:14;8.20;99.90
11320;DHT22;5715;48.234;14.320;2023-04-01T03:36:02;8.20;99.90
11320;DHT22;5715;48.234;14.320;2023-04-01T03:38:53;8.30;99.90
11320;DHT22;5715;48.234;14.320;2023-04-01T03:41:41;8.40;99.90
11320;DHT22;5715;48.234;14.320;2023-04-01T03:44:32;8.40;99.90
11320;DHT22;5715;48.234;14.320;2023-04-01T03:47:20;8.40;99.90
11320;DHT22;5715;48.234;14.320;2023-04-01T03:50:08;8.30;99.90
11320;DHT22;5715;48.234;14.320;2023-04-01T03:52:57;8.30;99.90
11320;DHT22;5715;48.234;14.320;2023-04-01T03:55:44;8.30;99.90
11320;DHT22;5715;48.234;14.320;2023-04-01T03:58:32;8.20;99.90
11320;DHT22;5715;48.234;14.320;2023-04-01T04:01:21;8.20;99.90
11320;DHT22;5715;48.234;14.320;2023-04-01T04:04:12;8.10;99.90
11320;DHT22;5715;48.234;14.320;2023-04-01T04:07:00;8.10;99.90
11320;DHT22;5715;48.234;14.320;2023-04-01T04:09:48;8.10;99.90
11320;DHT22;5715;48.234;14.320;2023-04-01T04:12:35;8.10;99.90
11320;DHT22;5715;48.234;14.320;2023-04-01T04:15:23;8.10;99.90
11320;DHT22;5715;48.234;14.320;2023-04-01T04:18:10;8.10;99.90
11320;DHT22;5715;48.234;14.320;2023-04-01T04:20:58;8.10;99.90
11320;DHT22;5715;48.234;14.320;2023-04-01T04:23:45;8.10;99.90
11320;DHT22;5715;48.234;14.320;2023-04-01T04:26:33;8.10;99.90
11320;DHT22;5715;48.234;14.320;2023-04-01T04:29:21;8.00;99.90
11320;DHT22;5715;48.234;14.320;2023-04-01T04:32:09;8.00;99.90
11320;DHT22;5715;48.234;14.320;2023-04-01T04:34:57;8.00;99.90
11320;DHT22;5715;48.234;14.320;2023-04-01T04:37:44;7.90;99.90
11320;DHT22;5715;48.234;14.320;2023-04-01T04:40:32;7.90;99.90
11320;DHT22;5715;48.234;14.320;2023-04-01T04:43:20;7.80;99.90
11320;DHT22;5715;48.234;14.320;2023-04-01T04:46:11;7.80;99.90
11320;DHT22;5715;48.234;14.320;2023-04-01T04:48:58;7.70;99.90
11320;DHT22;5715;48.234;14.320;2023-04-01T04:51:46;7.70;99.90
11320;DHT22;5715;48.234;14.320;2023-04-01T04:54:34;7.60;99.90
11320;DHT22;5715;48.234;14.320;2023-04-01T04:57:21;7.60;99.90
11320;DHT22;5715;48.234;14.320;2023-04-01T05:00:10;7.70;99.90
11320;DHT22;5715;48.234;14.320;2023-04-01T05:02:58;7.70;99.90
11320;DHT22;5715;48.234;14.320;2023-04-01T05:05:51;7.70;99.90
11320;DHT22;5715;48.234;14.320;2023-04-01T05:08:40;7.80;99.90
11320;DHT22;5715;48.234;14.320;2023-04-01T05:11:28;7.80;99.90
11320;DHT22;5715;48.234;14.320;2023-04-01T05:14:16;7.90;99.90
11320;DHT22;5715;48.234;14.320;2023-04-01T05:17:09;8.00;99.90
11320;DHT22;5715;48.234;14.320;2023-04-01T05:19:58;8.10;99.90
11320;DHT22;5715;48.234;14.320;2023-04-01T05:22:45;8.20;99.90
11320;DHT22;5715;48.234;14.320;2023-04-01T05:25:33;8.30;99.90
11320;DHT22;5715;48.234;14.320;2023-04-01T05:28:21;8.40;99.90
11320;DHT22;5715;48.234;14.320;2023-04-01T05:31:08;8.50;99.90
11320;DHT22;5715;48.234;14.320;2023-04-01T05:33:56;8.50;99.90
11320;DHT22;5715;48.234;14.320;2023-04-01T05:36:44;8.50;99.90
11320;DHT22;5715;48.234;14.320;2023-04-01T05:39:35;8.50;99.90
11320;DHT22;5715;48.234;14.320;2023-04-01T05:42:24;8.60;99.90
11320;DHT22;5715;48.234;14.320;2023-04-01T05:45:12;8.60;99.90
11320;DHT22;5715;48.234;14.320;2023-04-01T05:48:02;8.70;99.90
11320;DHT22;5715;48.234;14.320;2023-04-01T05:50:50;8.70;99.90
11320;DHT22;5715;48.234;14.320;2023-04-01T05:53:38;8.80;99.90
11320;DHT22;5715;48.234;14.320;2023-04-01T05:56:25;9.00;99.90
11320;DHT22;5715;48.234;14.320;2023-04-01T05:59:13;9.00;99.90
11320;DHT22;5715;48.234;14.320;2023-04-01T06:02:01;9.10;99.90
11320;DHT22;5715;48.234;14.320;2023-04-01T06:04:48;9.20;99.90
11320;DHT22;5715;48.234;14.320;2023-04-01T06:07:36;9.30;99.90
11320;DHT22;5715;48.234;14.320;2023-04-01T06:41:16;9.50;99.90
11320;DHT22;5715;48.234;14.320;2023-04-01T06:44:23;9.50;99.90
11320;DHT22;5715;48.234;14.320;2023-04-01T06:54:04;9.70;99.90
11320;DHT22;5715;48.234;14.320;2023-04-01T07:00:30;9.90;99.90
11320;DHT22;5715;48.234;14.320;2023-04-01T07:03:29;10.20;99.90
11320;DHT22;5715;48.234;14.320;2023-04-01T07:06:36;10.50;99.90
11320;DHT22;5715;48.234;14.320;2023-04-01T07:09:39;10.70;99.90
11320;DHT22;5715;48.234;14.320;2023-04-01T07:12:37;10.80;99.90
11320;DHT22;5715;48.234;14.320;2023-04-01T07:15:39;11.00;99.90
11320;DHT22;5715;48.234;14.320;2023-04-01T07:18:34;11.00;99.90
11320;DHT22;5715;48.234;14.320;2023-04-01T07:24:49;11.10;99.90
11320;DHT22;5715;48.234;14.320;2023-04-01T07:27:37;11.00;99.90
11320;DHT22;5715;48.234;14.320;2023-04-01T07:30:28;11.10;99.90
11320;DHT22;5715;48.234;14.320;2023-04-01T07:33:28;11.20;99.90
11320;DHT22;5715;48.234;14.320;2023-04-01T07:42:53;11.30;99.90
11320;DHT22;5715;48.234;14.320;2023-04-01T08:22:33;11.50;99.90
11320;DHT22;5715;48.234;14.320;2023-04-01T08:25:28;11.40;99.90
11320;DHT22;5715;48.234;14.320;2023-04-01T08:31:48;11.40;99.90
11320;DHT22;5715;48.234;14.320;2023-04-01T08:34:38;11.50;99.90
11320;DHT22;5715;48.234;14.320;2023-04-01T08:37:32;11.60;99.90
11320;DHT22;5715;48.234;14.320;2023-04-01T08:43:58;11.70;99.90
11320;DHT22;5715;48.234;14.320;2023-04-01T08:47:46;12.00;99.90
11320;DHT22;5715;48.234;14.320;2023-04-01T09:01:14;12.40;99.90
11320;DHT22;5715;48.234;14.320;2023-04-01T09:07:35;12.90;99.90
11320;DHT22;5715;48.234;14.320;2023-04-01T09:15:12;13.40;99.90
11320;DHT22;5715;48.234;14.320;2023-04-01T09:21:31;13.50;99.90
11320;DHT22;5715;48.234;14.320;2023-04-01T09:27:53;13.50;99.90
11320;DHT22;5715;48.234;14.320;2023-04-01T09:31:03;13.30;99.90
11320;DHT22;5715;48.234;14.320;2023-04-01T09:34:06;13.10;99.90
11320;DHT22;5715;48.234;14.320;2023-04-01T09:44:21;13.00;99.90
11320;DHT22;5715;48.234;14.320;2023-04-01T09:47:33;13.00;99.90
11320;DHT22;5715;48.234;14.320;2023-04-01T09:50:57;13.00;99.90
11320;DHT22;5715;48.234;14.320;2023-04-01T10:11:44;13.40;99.90
11320;DHT22;5715;48.234;14.320;2023-04-01T10:18:53;13.50;99.90
11320;DHT22;5715;48.234;14.320;2023-04-01T10:28:25;13.80;99.90
11320;DHT22;5715;48.234;14.320;2023-04-01T11:01:40;13.20;99.90
11320;DHT22;5715;48.234;14.320;2023-04-01T11:25:23;14.40;99.90
11320;DHT22;5715;48.234;14.320;2023-04-01T11:28:26;14.30;99.90
11320;DHT22;5715;48.234;14.320;2023-04-01T11:31:58;14.20;99.90
11320;DHT22;5715;48.234;14.320;2023-04-01T11:35:28;14.30;99.90
11320;DHT22;5715;48.234;14.320;2023-04-01T11:38:29;14.20;99.90
11320;DHT22;5715;48.234;14.320;2023-04-01T11:57:59;15.20;99.90
11320;DHT22;5715;48.234;14.320;2023-04-01T12:01:03;15.10;99.90
11320;DHT22;5715;48.234;14.320;2023-04-01T12:07:24;15.20;99.90
11320;DHT22;5715;48.234;14.320;2023-04-01T12:10:58;15.10;99.90
11320;DHT22;5715;48.234;14.320;2023-04-01T12:16:46;14.80;99.90
11320;DHT22;5715;48.234;14.320;2023-04-01T12:23:55;14.60;99.90
11320;DHT22;5715;48.234;14.320;2023-04-01T12:30:37;15.00;99.90
11320;DHT22;5715;48.234;14.320;2023-04-01T12:33:53;15.10;99.90
11320;DHT22;5715;48.234;14.320;2023-04-01T12:37:07;15.10;99.90
11320;DHT22;5715;48.234;14.320;2023-04-01T12:43:25;14.80;99.90
11320;DHT22;5715;48.234;14.320;2023-04-01T12:50:11;13.60;99.90
11320;DHT22;5715;48.234;14.320;2023-04-01T13:07:36;13.60;99.90
11320;DHT22;5715;48.234;14.320;2023-04-01T13:10:59;13.60;99.90
11320;DHT22;5715;48.234;14.320;2023-04-01T13:17:32;13.50;99.90
11320;DHT22;5715;48.234;14.320;2023-04-01T13:27:16;13.90;99.90
11320;DHT22;5715;48.234;14.320;2023-04-01T13:36:28;14.00;99.90
11320;DHT22;5715;48.234;14.320;2023-04-01T13:42:28;14.20;99.90
11320;DHT22;5715;48.234;14.320;2023-04-01T14:32:50;13.40;99.90
11320;DHT22;5715;48.234;14.320;2023-04-01T14:48:34;13.30;99.90
11320;DHT22;5715;48.234;14.320;2023-04-01T14:51:38;13.20;99.90
11320;DHT22;5715;48.234;14.320;2023-04-01T14:54:37;13.10;99.90
11320;DHT22;5715;48.234;14.320;2023-04-01T14:57:30;12.70;99.90
11320;DHT22;5715;48.234;14.320;2023-04-01T15:00:19;12.50;99.90
11320;DHT22;5715;48.234;14.320;2023-04-01T15:03:19;12.20;99.90
11320;DHT22;5715;48.234;14.320;2023-04-01T15:16:25;11.90;99.90
11320;DHT22;5715;48.234;14.320;2023-04-01T15:36:05;11.20;99.90
11320;DHT22;5715;48.234;14.320;2023-04-01T15:46:47;11.20;99.90
11320;DHT22;5715;48.234;14.320;2023-04-01T15:49:41;11.30;99.90
11320;DHT22;5715;48.234;14.320;2023-04-01T15:59:07;11.40;99.90
11320;DHT22;5715;48.234;14.320;2023-04-01T16:05:27;11.30;99.90
11320;DHT22;5715;48.234;14.320;2023-04-01T16:15:29;11.20;99.90
11320;DHT22;5715;48.234;14.320;2023-04-01T16:22:19;11.00;99.90
11320;DHT22;5715;48.234;14.320;2023-04-01T16:35:52;10.80;99.90
11320;DHT22;5715;48.234;14.320;2023-04-01T16:42:40;10.60;99.90
11320;DHT22;5715;48.234;14.320;2023-04-01T16:54:51;10.50;99.90
11320;DHT22;5715;48.234;14.320;2023-04-01T17:00:48;10.40;99.90
11320;DHT22;5715;48.234;14.320;2023-04-01T17:07:19;10.30;99.90
11320;DHT22;5715;48.234;14.320;2023-04-01T17:13:35;10.20;99.90
11320;DHT22;5715;48.234;14.320;2023-04-01T17:33:56;9.80;99.90
11320;DHT22;5715;48.234;14.320;2023-04-01T17:50:14;9.70;99.90
11320;DHT22;5715;48.234;14.320;2023-04-01T18:03:30;9.80;99.90
11320;DHT22;5715;48.234;14.320;2023-04-01T18:07:26;9.60;99.90
11320;DHT22;5715;48.234;14.320;2023-04-01T18:10:29;9.50;99.90
11320;DHT22;5715;48.234;14.320;2023-04-01T18:17:12;9.50;99.90
11320;DHT22;5715;48.234;14.320;2023-04-01T18:26:28;9.50;99.90
11320;DHT22;5715;48.234;14.320;2023-04-01T18:33:02;9.50;99.90
11320;DHT22;5715;48.234;14.320;2023-04-01T18:36:21;9.50;99.90
11320;DHT22;5715;48.234;14.320;2023-04-01T18:39:39;9.50;99.90
11320;DHT22;5715;48.234;14.320;2023-04-01T18:46:00;9.40;99.90
11320;DHT22;5715;48.234;14.320;2023-04-01T18:52:37;9.40;99.90
11320;DHT22;5715;48.234;14.320;2023-04-01T18:55:49;9.40;99.90
11320;DHT22;5715;48.234;14.320;2023-04-01T19:05:16;9.30;99.90
11320;DHT22;5715;48.234;14.320;2023-04-01T19:08:34;9.30;99.90
11320;DHT22;5715;48.234;14.320;2023-04-01T19:11:44;9.30;99.90
11320;DHT22;5715;48.234;14.320;2023-04-01T19:18:08;9.30;99.90
11320;DHT22;5715;48.234;14.320;2023-04-01T19:25:12;9.20;99.90
11320;DHT22;5715;48.234;14.320;2023-04-01T19:37:51;9.20;99.90
11320;DHT22;5715;48.234;14.320;2023-04-01T19:40:50;9.20;99.90
11320;DHT22;5715;48.234;14.320;2023-04-01T20:00:31;9.00;99.90
11320;DHT22;5715;48.234;14.320;2023-04-01T20:03:53;9.00;99.90
11320;DHT22;5715;48.234;14.320;2023-04-01T20:10:20;9.00;99.90
11320;DHT22;5715;48.234;14.320;2023-04-01T20:26:36;9.10;99.90
11320;DHT22;5715;48.234;14.320;2023-04-01T20:36:06;9.00;99.90
11320;DHT22;5715;48.234;14.320;2023-04-01T20:52:36;9.00;99.90
11320;DHT22;5715;48.234;14.320;2023-04-01T20:55:47;9.00;99.90
11320;DHT22;5715;48.234;14.320;2023-04-01T21:19:14;9.00;99.90
11320;DHT22;5715;48.234;14.320;2023-04-01T21:39:18;9.10;99.90
11320;DHT22;5715;48.234;14.320;2023-04-01T21:42:56;9.10;99.90
11320;DHT22;5715;48.234;14.320;2023-04-01T21:49:49;9.10;99.90
11320;DHT22;5715;48.234;14.320;2023-04-01T22:06:37;9.10;99.90
11320;DHT22;5715;48.234;14.320;2023-04-01T22:09:39;9.10;99.90
11320;DHT22;5715;48.234;14.320;2023-04-01T22:12:58;9.10;99.90
11320;DHT22;5715;48.234;14.320;2023-04-01T22:29:06;9.00;99.90
11320;DHT22;5715;48.234;14.320;2023-04-01T22:32:24;9.00;99.90
11320;DHT22;5715;48.234;14.320;2023-04-01T22:35:48;9.00;99.90
11320;DHT22;5715;48.234;14.320;2023-04-01T22:40:03;8.90;99.90
11320;DHT22;5715;48.234;14.320;2023-04-01T22:48:36;8.90;99.90
11320;DHT22;5715;48.234;14.320;2023-04-01T22:54:49;8.90;99.90
11320;DHT22;5715;48.234;14.320;2023-04-01T22:58:06;9.00;99.90
11320;DHT22;5715;48.234;14.320;2023-04-01T23:01:15;9.10;99.90
11320;DHT22;5715;48.234;14.320;2023-04-01T23:04:10;9.10;99.90
11320;DHT22;5715;48.234;14.320;2023-04-01T23:10:22;9.10;99.90
11320;DHT22;5715;48.234;14.320;2023-04-01T23:13:31;9.20;99.90
11320;DHT22;5715;48.234;14.320;2023-04-01T23:16:51;9.20;99.90
11320;DHT22;5715;48.234;14.320;2023-04-01T23:28:57;9.10;99.90
11320;DHT22;5715;48.234;14.320;2023-04-01T23:32:02;9.10;99.90
11320;DHT22;5715;48.234;14.320;2023-04-01T23:34:57;9.10;99.90
11320;DHT22;5715;48.234;14.320;2023-04-01T23:37:46;9.00;99.90
11320;DHT22;5715;48.234;14.320;2023-04-01T23:40:35;9.00;99.90
11320;DHT22;5715;48.234;14.320;2023-04-01T23:43:29;8.90;99.90
11320;DHT22;5715;48.234;14.320;2023-04-01T23:46:21;8.90;99.90
11320;DHT22;5715;48.234;14.320;2023-04-01T23:49:24;8.90;99.90
11320;DHT22;5715;48.234;14.320;2023-04-01T23:52:27;8.90;99.90
11320;DHT22;5715;48.234;14.320;2023-04-01T23:55:23;8.90;99.90
11320;DHT22;5715;48.234;14.320;2023-04-01T23:58:25;8.80;99.90
